Time;durP1;ratioP1;P1;durP2;ratioP2;P2;SDS_P1;SDS_P2;PMS_P1;PMS_P2;Temp;Humidity;BMP_temperature;BMP_pressure;BME280_temperature;BME280_humidity;BME280_pressure;Samples;Min_cycle;Max_cycle;Signal;HPM_P1;HPM_P2
2022/09/08 00:02:43;;;;;;;3.40;2.45;;;;;;;22.22;60.36;99482.41;10317880;28;20073;-59
2022/09/08 00:07:47;;;;;;;2.90;2.60;;;;;;;22.05;60.46;99486.69;10318095;28;20116;-59
2022/09/08 00:12:48;;;;;;;2.45;2.25;;;;;;;21.91;60.87;99469.69;10277326;28;20062;-60
2022/09/08 00:17:50;;;;;;;3.78;2.88;;;;;;;21.89;61.67;99472.59;10277030;28;20061;-59
2022/09/08 00:22:51;;;;;;;2.90;2.30;;;;;;;21.88;61.49;99470.94;10276543;28;20046;-60
2022/09/08 00:27:52;;;;;;;3.53;2.95;;;;;;;21.92;60.79;99492.16;10276313;28;20092;-60
2022/09/08 00:32:54;;;;;;;4.55;2.53;;;;;;;21.67;60.89;99545.19;10273298;28;20050;-60
2022/09/08 00:37:55;;;;;;;5.80;2.88;;;;;;;21.67;61.70;99566.03;10274153;28;20047;-59
2022/09/08 00:42:58;;;;;;;4.97;2.97;;;;;;;21.71;61.88;99568.09;10285009;28;20522;-59
2022/09/08 00:48:04;;;;;;;4.25;2.83;;;;;;;21.64;61.14;99571.88;10315643;28;20053;-59
2022/09/08 00:53:11;;;;;;;3.22;2.03;;;;;;;21.41;61.53;99566.88;10316201;28;20403;-60
2022/09/08 00:58:13;;;;;;;2.20;1.70;;;;;;;20.92;61.93;99561.75;10316764;28;20065;-59
2022/09/08 01:03:15;;;;;;;2.08;1.65;;;;;;;20.85;62.90;99547.38;10315907;28;20042;-59
2022/09/08 01:14:01;;;;;;;2.78;1.75;;;;;;;20.76;65.63;99551.34;10314389;28;20041;-59
2022/09/08 01:19:02;;;;;;;2.92;1.30;;;;;;;20.78;65.92;99533.88;10316760;28;20053;-59
2022/09/08 01:24:28;;;;;;;1.52;0.90;;;;;;;20.72;65.33;99523.88;10318128;28;20046;-59
2022/09/08 01:29:30;;;;;;;2.65;1.70;;;;;;;20.66;67.77;99522.00;10310269;28;20057;-60
2022/09/08 01:34:42;;;;;;;5.20;1.77;;;;;;;20.87;71.23;99515.56;10319484;28;20056;-60
2022/09/08 01:39:45;;;;;;;5.55;1.52;;;;;;;21.00;70.47;99512.84;10311234;28;20073;-59
2022/09/08 01:44:46;;;;;;;1.97;1.63;;;;;;;21.10;71.18;99501.59;10315265;28;20046;-60
2022/09/08 01:49:47;;;;;;;5.22;2.00;;;;;;;21.21;72.31;99501.97;10316076;28;21196;-59
2022/09/08 01:54:49;;;;;;;3.90;2.30;;;;;;;21.19;72.91;99505.72;10313458;28;20054;-59
2022/09/08 01:59:50;;;;;;;4.13;2.05;;;;;;;21.23;73.99;99499.88;10315347;28;20054;-59
2022/09/08 02:04:52;;;;;;;3.72;1.85;;;;;;;21.20;74.52;99501.16;10314788;28;20062;-59
2022/09/08 02:09:53;;;;;;;6.38;3.05;;;;;;;21.22;74.50;99499.06;10314543;28;20135;-60
2022/09/08 02:14:55;;;;;;;4.13;2.00;;;;;;;21.27;74.46;99495.72;10313707;28;20054;-59
2022/09/08 02:19:56;;;;;;;3.10;2.20;;;;;;;21.24;75.50;99486.13;10308181;28;20054;-58
2022/09/08 02:24:58;;;;;;;4.55;2.22;;;;;;;21.22;74.47;99480.13;10277178;28;20584;-60
2022/09/08 02:29:59;;;;;;;2.38;1.80;;;;;;;21.17;74.96;99472.63;10262216;28;20357;-59
2022/09/08 02:35:01;;;;;;;2.97;2.10;;;;;;;21.09;75.75;99480.16;10268355;28;20885;-60
2022/09/08 02:40:03;;;;;;;3.20;2.15;;;;;;;20.96;74.11;99467.50;10267521;28;20054;-60
2022/09/08 02:45:08;;;;;;;2.95;1.85;;;;;;;20.94;74.61;99473.13;10268810;28;20093;-60
2022/09/08 02:50:10;;;;;;;3.50;1.95;;;;;;;20.78;72.60;99471.66;10307000;28;20254;-59
2022/09/08 02:55:11;;;;;;;3.30;2.10;;;;;;;20.57;75.52;99477.28;10301980;28;20061;-59
2022/09/08 03:00:13;;;;;;;2.95;1.90;;;;;;;20.59;75.21;99464.38;10307196;28;20062;-59
2022/09/08 03:05:14;;;;;;;2.85;1.95;;;;;;;20.55;75.92;99461.25;10285115;28;20113;-58
2022/09/08 03:10:18;;;;;;;2.47;1.70;;;;;;;20.62;76.60;99461.25;10307931;28;20050;-59
2022/09/08 03:15:21;;;;;;;4.80;2.85;;;;;;;20.48;75.77;99458.53;10304096;28;20055;-58
2022/09/08 03:20:23;;;;;;;2.87;2.40;;;;;;;20.40;76.38;99447.09;10305288;28;20052;-61
2022/09/08 03:25:25;;;;;;;6.00;2.67;;;;;;;20.34;78.99;99458.72;10308021;28;20193;-60
2022/09/08 03:30:26;;;;;;;4.47;3.22;;;;;;;20.26;80.30;99457.06;10306349;28;20046;-59
2022/09/08 03:35:28;;;;;;;3.15;2.53;;;;;;;20.18;81.37;99455.41;10307413;28;20046;-59
2022/09/08 03:40:29;;;;;;;4.10;2.72;;;;;;;20.23;80.18;99447.50;10310958;28;20052;-58
2022/09/08 03:45:31;;;;;;;5.60;2.85;;;;;;;20.09;81.40;99446.66;10310797;28;20054;-63
2022/09/08 03:50:32;;;;;;;4.35;2.70;;;;;;;20.16;82.54;99435.84;10313978;28;20515;-59
2022/09/08 03:55:34;;;;;;;4.25;3.58;;;;;;;20.28;83.50;99430.66;10316658;28;20479;-61
2022/09/08 04:00:38;;;;;;;6.63;3.83;;;;;;;20.24;82.21;99432.13;10318125;28;20056;-58
2022/09/08 04:05:40;;;;;;;3.63;3.22;;;;;;;20.34;82.58;99442.53;10318539;28;20391;-59
2022/09/08 04:10:42;;;;;;;3.42;2.97;;;;;;;20.26;80.63;99440.84;10318889;28;20066;-58
2022/09/08 04:15:44;;;;;;;3.30;3.00;;;;;;;20.13;82.54;99437.09;10318970;28;20045;-58
2022/09/08 04:20:45;;;;;;;4.30;2.60;;;;;;;20.14;81.35;99438.75;10303479;28;20108;-59
2022/09/08 04:25:58;;;;;;;3.67;3.35;;;;;;;20.07;82.32;99429.84;10316465;28;20054;-59
2022/09/08 04:31:07;;;;;;;3.80;2.83;;;;;;;19.98;82.78;99430.22;10317790;28;20091;-59
2022/09/08 04:36:12;;;;;;;3.88;3.47;;;;;;;19.98;83.93;99422.13;10280327;28;20084;-59
2022/09/08 04:41:29;;;;;;;3.97;3.60;;;;;;;19.92;82.25;99430.00;10272736;28;20154;-60
2022/09/08 04:46:32;;;;;;;4.35;3.90;;;;;;;19.74;84.54;99417.06;10267741;28;20046;-59
2022/09/08 04:51:34;;;;;;;4.18;3.28;;;;;;;19.58;84.56;99425.53;10236801;28;20066;-65
2022/09/08 04:56:35;;;;;;;3.83;3.40;;;;;;;19.48;85.81;99433.16;10262589;28;20054;-64
2022/09/08 05:01:37;;;;;;;3.65;3.33;;;;;;;19.53;84.63;99425.28;10280068;28;20597;-65
2022/09/08 05:06:38;;;;;;;4.90;2.53;;;;;;;19.60;84.81;99431.53;10285094;28;20054;-65
2022/09/08 05:11:40;;;;;;;3.70;2.75;;;;;;;19.34;86.01;99435.81;10280835;28;20527;-65
2022/09/08 05:16:41;;;;;;;3.85;2.92;;;;;;;19.35;85.57;99437.47;10286142;28;20057;-64
2022/09/08 05:21:43;;;;;;;4.32;2.30;;;;;;;19.36;86.48;99438.31;10288054;28;20498;-65
2022/09/08 05:26:44;;;;;;;3.78;2.67;;;;;;;19.27;85.02;99442.19;10288776;28;20050;-65
2022/09/08 05:31:45;;;;;;;3.53;2.60;;;;;;;19.12;89.08;99440.47;10287754;28;20053;-65
2022/09/08 05:36:47;;;;;;;3.88;3.13;;;;;;;19.25;88.48;99423.53;10286895;28;20049;-66
2022/09/08 05:41:52;;;;;;;4.47;3.55;;;;;;;19.24;88.83;99421.84;10287674;28;20048;-66
2022/09/08 05:46:53;;;;;;;4.93;3.20;;;;;;;19.41;88.78;99411.53;10290443;28;20056;-65
2022/09/08 05:51:55;;;;;;;4.47;3.40;;;;;;;19.27;88.12;99402.56;10293152;28;20152;-65
2022/09/08 05:56:57;;;;;;;7.03;3.90;;;;;;;19.27;87.87;99397.16;10282506;28;20388;-65
2022/09/08 06:01:59;;;;;;;5.22;4.07;;;;;;;19.22;87.99;99402.34;10289799;28;20077;-65
2022/09/08 06:07:00;;;;;;;3.47;3.03;;;;;;;19.28;88.79;99406.94;10289052;28;20524;-66
2022/09/08 06:12:02;;;;;;;5.13;4.07;;;;;;;19.11;87.22;99417.25;10286509;28;20443;-65
2022/09/08 06:17:06;;;;;;;4.13;3.30;;;;;;;19.12;87.54;99424.28;10332257;23;20043;-74
2022/09/08 06:22:07;;;;;;;;;;;;;;;19.32;87.79;99442.41;10281365;28;20078;-74
2022/09/08 06:27:38;;;;;;;3.78;3.47;;;;;;;19.31;88.59;99455.09;10280702;28;19926;-73
2022/09/08 06:32:52;;;;;;;3.60;2.90;;;;;;;19.04;86.62;99449.53;10264175;28;20146;-74
2022/09/08 06:38:01;;;;;;;3.55;2.47;;;;;;;19.14;87.62;99467.22;10276576;28;20051;-75
2022/09/08 06:43:44;;;;;;;2.83;2.60;;;;;;;19.06;86.66;99471.75;10266872;28;20081;-73
2022/09/08 06:48:46;;;;;;;3.75;2.53;;;;;;;19.06;86.83;99469.06;10240040;28;20042;-75
2022/09/08 06:54:05;;;;;;;4.72;2.35;;;;;;;18.96;87.41;99457.81;10269131;28;20430;-74
2022/09/08 06:59:20;;;;;;;5.15;2.65;;;;;;;18.96;87.52;99460.50;10279353;28;20054;-76
2022/09/08 07:04:42;;;;;;;2.85;2.58;;;;;;;18.90;88.51;99459.41;10267793;28;20053;-75
2022/09/08 07:10:11;;;;;;;2.97;2.75;;;;;;;18.86;90.42;99460.03;10265416;28;20046;-74
2022/09/08 07:15:51;;;;;;;3.90;2.58;;;;;;;18.87;91.17;99464.34;10271879;28;20046;-73
2022/09/08 07:21:14;;;;;;;3.40;3.10;;;;;;;18.84;89.72;99470.13;10274201;28;20046;-75
2022/09/08 07:26:29;;;;;;;4.15;3.47;;;;;;;18.77;91.69;99464.69;10283673;28;20054;-72
2022/09/08 07:31:31;;;;;;;3.20;2.90;;;;;;;18.84;93.62;99465.56;10281787;28;20054;-75
2022/09/08 07:36:44;;;;;;;3.80;3.38;;;;;;;18.63;94.95;99466.47;10281146;28;20043;-74
2022/09/08 07:41:53;;;;;;;4.00;3.00;;;;;;;18.57;95.41;99475.31;10279985;28;20042;-74
2022/09/08 07:47:16;;;;;;;2.83;2.17;;;;;;;18.70;95.29;99467.31;10278931;28;20050;-73
2022/09/08 07:52:42;;;;;;;3.10;2.28;;;;;;;18.45;94.38;99475.00;10279676;28;20080;-74
2022/09/08 07:57:54;;;;;;;2.78;2.15;;;;;;;18.46;96.94;99479.34;10275555;28;20501;-73
2022/09/08 08:03:20;;;;;;;2.25;2.05;;;;;;;18.56;93.55;99495.22;10277828;28;21166;-74
2022/09/08 08:08:34;;;;;;;2.63;2.42;;;;;;;18.75;92.67;99499.09;10277794;28;20211;-75
2022/09/08 08:14:04;;;;;;;3.28;2.28;;;;;;;18.64;93.37;99497.75;10292374;28;20061;-72
2022/09/08 08:19:12;;;;;;;2.92;2.50;;;;;;;18.65;94.70;99504.81;10278454;28;20923;-71
2022/09/08 08:24:46;;;;;;;3.70;2.33;;;;;;;18.88;91.76;99514.56;10279422;28;20058;-71
2022/09/08 08:30:15;;;;;;;4.15;1.80;;;;;;;18.87;92.92;99508.34;10299329;28;20053;-71
2022/09/08 08:35:34;;;;;;;3.15;2.20;;;;;;;19.16;89.70;99521.84;10301020;28;20853;-71
2022/09/08 08:40:58;;;;;;;3.85;2.35;;;;;;;19.26;88.40;99522.31;10282812;28;20050;-71
2022/09/08 08:46:22;;;;;;;1.75;1.48;;;;;;;19.66;88.75;99525.22;10281397;28;20053;-73
2022/09/08 08:51:46;;;;;;;2.60;2.40;;;;;;;19.94;83.86;99529.72;10276002;28;20140;-74
2022/09/08 08:57:23;;;;;;;3.45;1.98;;;;;;;19.90;83.95;99534.69;10273168;28;20289;-72
2022/09/08 09:03:01;;;;;;;2.22;1.70;;;;;;;20.00;81.43;99544.31;10274238;28;20073;-72
2022/09/08 09:08:19;;;;;;;2.25;1.60;;;;;;;19.99;81.79;99539.94;10277629;28;20147;-71
2022/09/08 09:13:33;;;;;;;1.98;1.15;;;;;;;20.17;78.93;99545.59;10273118;28;20061;-73
2022/09/08 09:18:40;;;;;;;1.83;1.10;;;;;;;20.91;77.75;99540.31;10275370;28;20050;-72
2022/09/08 09:24:08;;;;;;;1.90;1.00;;;;;;;21.54;73.19;99546.09;10277563;28;20054;-73
2022/09/08 09:29:18;;;;;;;1.58;0.93;;;;;;;21.52;70.38;99537.31;10277321;28;20069;-72
2022/09/08 09:34:25;;;;;;;3.22;0.73;;;;;;;21.38;67.49;99551.94;10277925;28;20050;-70
2022/09/08 09:39:42;;;;;;;4.00;0.90;;;;;;;21.44;70.48;99542.09;10295328;28;20134;-73
2022/09/08 09:45:05;;;;;;;2.88;1.10;;;;;;;22.22;66.95;99531.19;10303145;28;20054;-72
2022/09/08 09:50:34;;;;;;;1.30;0.65;;;;;;;21.99;62.72;99536.31;10334148;28;20050;-75
2022/09/08 09:56:00;;;;;;;1.40;0.70;;;;;;;21.77;64.77;99552.03;10303311;28;20241;-72
2022/09/08 10:01:49;;;;;;;3.33;0.70;;;;;;;21.61;63.38;99556.88;10310806;28;20727;-74
2022/09/08 10:07:23;;;;;;;2.53;0.50;;;;;;;22.25;61.40;99547.03;10288685;28;20065;-76
2022/09/08 10:12:43;;;;;;;;;;;;;;;23.42;57.53;99547.59;10343222;28;20064;-77
2022/09/08 10:18:06;;;;;;;0.52;0.10;;;;;;;26.64;48.26;99552.91;10337434;28;19925;-77
2022/09/08 10:23:36;;;;;;;1.13;0.30;;;;;;;23.24;56.05;99549.25;10316030;28;20038;-72
2022/09/08 10:29:31;;;;;;;2.25;0.60;;;;;;;22.09;59.83;99562.97;10290250;28;20472;-74
2022/09/08 10:35:05;;;;;;;2.08;0.60;;;;;;;21.39;62.44;99558.97;10289388;28;20046;-74
2022/09/08 10:40:36;;;;;;;0.75;0.40;;;;;;;21.37;61.73;99561.06;10287929;28;20054;-78
2022/09/08 10:45:56;;;;;;;0.85;0.57;;;;;;;21.14;62.87;99562.38;10289592;28;20061;-74
2022/09/08 10:51:07;;;;;;;1.95;0.82;;;;;;;21.74;60.42;99564.16;10288685;28;20057;-75
2022/09/08 10:56:14;;;;;;;1.73;0.38;;;;;;;25.71;49.14;99558.47;10290296;28;20043;-74
2022/09/08 11:01:40;;;;;;;1.90;0.45;;;;;;;25.07;50.97;99555.63;10299507;28;20054;-73
2022/09/08 11:06:53;;;;;;;1.38;0.32;;;;;;;23.18;51.88;99562.88;10297607;28;20716;-71
2022/09/08 11:12:06;;;;;;;0.90;0.40;;;;;;;26.79;42.24;99562.47;10298424;28;20209;-75
2022/09/08 11:17:31;;;;;;;4.03;0.28;;;;;;;31.60;34.19;99553.56;10298872;28;20066;-75
2022/09/08 11:22:42;;;;;;;1.02;0.73;;;;;;;33.21;29.25;99565.25;10294492;28;20616;-74
2022/09/08 11:27:58;;;;;;;1.03;0.20;;;;;;;36.40;25.50;99572.03;10297524;28;20077;-75
2022/09/08 11:33:17;;;;;;;1.48;0.10;;;;;;;27.99;36.38;99577.63;10295811;28;20242;-76
2022/09/08 11:38:30;;;;;;;1.50;0.30;;;;;;;32.04;30.81;99579.56;10298066;28;20050;-74
2022/09/08 11:43:45;;;;;;;1.65;0.45;;;;;;;35.44;26.50;99565.44;10291866;28;20617;-74
2022/09/08 11:49:14;;;;;;;1.08;0.10;;;;;;;37.14;22.51;99569.97;10292362;28;20386;-75
2022/09/08 11:54:44;;;;;;;2.10;0.25;;;;;;;33.05;26.64;99575.59;10285409;28;20145;-73
2022/09/08 12:00:07;;;;;;;1.53;0.30;;;;;;;28.69;33.57;99577.84;10291212;28;20042;-76
2022/09/08 12:05:27;;;;;;;1.63;0.17;;;;;;;26.36;37.76;99577.50;10292217;28;20054;-74
2022/09/08 12:11:17;;;;;;;2.20;0.30;;;;;;;25.38;41.07;99581.72;10300887;28;20173;-74
2022/09/08 12:16:40;;;;;;;1.23;0.22;;;;;;;24.45;42.85;99583.19;10292788;28;20065;-74
2022/09/08 12:21:47;;;;;;;0.45;0.10;;;;;;;24.52;43.42;99582.00;10289214;28;20705;-74
2022/09/08 12:26:58;;;;;;;1.65;0.40;;;;;;;24.68;42.26;99599.63;10305465;28;20213;-74
2022/09/08 12:32:20;;;;;;;2.05;0.30;;;;;;;30.62;31.44;99578.38;10293730;28;20054;-75
2022/09/08 12:37:33;;;;;;;2.33;0.10;;;;;;;31.58;30.45;99586.03;10296379;28;20049;-75
2022/09/08 12:42:52;;;;;;;0.93;0.10;;;;;;;29.51;32.12;99583.16;10300352;28;20304;-77
2022/09/08 12:48:19;;;;;;;1.35;0.28;;;;;;;34.36;25.95;99578.28;10299934;28;20050;-75
2022/09/08 12:53:29;;;;;;;2.25;0.20;;;;;;;31.45;30.49;99567.34;10256864;28;20043;-75
2022/09/08 12:59:09;;;;;;;7.17;0.87;;;;;;;28.80;33.20;99563.16;10297420;28;20050;-76
2022/09/08 13:04:38;;;;;;;1.75;0.28;;;;;;;27.96;34.29;99556.25;10290508;28;20171;-75
2022/09/08 13:10:01;;;;;;;2.83;0.40;;;;;;;26.07;37.98;99548.31;10282597;28;20058;-76
2022/09/08 13:15:06;;;;;;;1.73;0.32;;;;;;;25.48;39.47;99561.25;10294954;28;20883;-76
2022/09/08 13:20:29;;;;;;;1.50;0.50;;;;;;;25.85;38.52;99552.75;10299397;28;20493;-77
2022/09/08 13:25:42;;;;;;;1.85;0.30;;;;;;;25.90;38.88;99548.22;10348638;28;20110;-76
2022/09/08 13:30:57;;;;;;;1.33;0.32;;;;;;;25.49;37.72;99541.09;10333163;28;20042;-74
2022/09/08 13:36:24;;;;;;;0.85;0.17;;;;;;;24.95;40.90;99546.63;10302914;28;20104;-75
2022/09/08 13:41:46;;;;;;;1.80;0.25;;;;;;;24.42;39.99;99548.28;10293796;28;20789;-73
2022/09/08 13:47:00;;;;;;;1.90;0.40;;;;;;;24.03;41.03;99547.78;10311156;28;20630;-76
2022/09/08 13:52:38;;;;;;;1.13;0.10;;;;;;;24.21;40.95;99542.28;10292417;28;20054;-74
2022/09/08 13:58:05;;;;;;;2.67;0.32;;;;;;;24.00;40.90;99540.91;10291802;28;20050;-74
2022/09/08 14:03:09;;;;;;;1.40;0.30;;;;;;;23.99;41.70;99544.69;10291956;28;20052;-73
2022/09/08 14:08:10;;;;;;;2.30;0.30;;;;;;;23.93;41.45;99532.84;10293636;28;20203;-75
2022/09/08 14:13:15;;;;;;;1.60;0.35;;;;;;;23.92;42.39;99539.34;10290892;28;20460;-73
2022/09/08 14:18:43;;;;;;;3.08;0.85;;;;;;;24.17;42.36;99535.69;10291120;28;20134;-77
2022/09/08 14:23:53;;;;;;;1.98;0.47;;;;;;;23.94;42.09;99539.91;10289620;28;20046;-75
2022/09/08 14:29:33;;;;;;;1.48;0.25;;;;;;;23.77;42.34;99538.88;10287003;28;20508;-73
2022/09/08 14:35:06;;;;;;;0.95;0.30;;;;;;;23.30;43.82;99548.34;10288857;28;20382;-75
2022/09/08 14:40:07;;;;;;;1.17;0.32;;;;;;;23.17;43.81;99559.34;10290535;28;20066;-75
2022/09/08 14:45:26;;;;;;;2.55;0.73;;;;;;;23.27;43.68;99545.28;10289754;28;20085;-76
2022/09/08 14:51:01;;;;;;;1.20;0.35;;;;;;;23.19;43.51;99535.50;10287962;28;20118;-73
2022/09/08 14:56:24;;;;;;;2.35;0.60;;;;;;;23.30;43.81;99548.34;10287488;28;20042;-72
2022/09/08 15:01:31;;;;;;;1.33;0.32;;;;;;;23.24;44.16;99551.97;10287697;28;20143;-75
2022/09/08 15:06:45;;;;;;;3.17;0.30;;;;;;;23.19;44.12;99546.38;10281769;28;20050;-73
2022/09/08 15:11:48;;;;;;;3.35;0.40;;;;;;;23.02;45.05;99550.69;10289607;28;20046;-73
2022/09/08 15:16:52;;;;;;;0.70;0.32;;;;;;;22.90;44.54;99553.28;10283818;28;20466;-74
2022/09/08 15:21:59;;;;;;;1.85;0.22;;;;;;;22.77;44.54;99549.63;10291303;28;20042;-73
2022/09/08 15:27:19;;;;;;;1.42;0.30;;;;;;;22.60;44.35;99548.50;10279085;28;20668;-74
2022/09/08 15:32:29;;;;;;;1.52;0.35;;;;;;;22.52;45.36;99555.03;10271603;28;20053;-73
2022/09/08 15:37:42;;;;;;;4.25;0.60;;;;;;;22.42;44.75;99568.22;10276200;28;20053;-76
2022/09/08 15:43:07;;;;;;;2.47;0.52;;;;;;;22.37;45.57;99549.91;10276063;28;20046;-74
2022/09/08 15:48:19;;;;;;;1.35;0.35;;;;;;;22.31;45.99;99553.50;10279796;28;20046;-74
2022/09/08 15:53:54;;;;;;;2.45;0.90;;;;;;;22.22;46.49;99546.66;10277928;28;20261;-73
2022/09/08 15:59:07;;;;;;;3.03;0.85;;;;;;;22.12;47.17;99560.66;10276238;28;20054;-77
2022/09/08 16:04:25;;;;;;;1.67;0.40;;;;;;;22.07;48.22;99555.06;10293699;28;20046;-74
2022/09/08 16:09:27;;;;;;;2.20;0.40;;;;;;;22.07;49.10;99560.47;10278022;28;20717;-72
2022/09/08 16:14:48;;;;;;;3.38;0.52;;;;;;;22.13;48.61;99547.91;10278283;28;20054;-74
2022/09/08 16:20:10;;;;;;;3.45;0.57;;;;;;;22.05;48.77;99552.56;10279610;28;20585;-73
2022/09/08 16:25:12;;;;;;;2.42;0.82;;;;;;;22.04;49.47;99553.59;10276551;28;20061;-73
2022/09/08 16:30:42;;;;;;;2.17;0.80;;;;;;;22.15;48.70;99552.09;10275244;28;20279;-73
2022/09/08 16:36:06;;;;;;;2.90;0.63;;;;;;;22.14;49.27;99561.25;10284633;28;20518;-72
2022/09/08 16:41:25;;;;;;;1.17;0.45;;;;;;;21.89;50.36;99564.72;10281894;28;20493;-73
2022/09/08 16:46:38;;;;;;;2.20;0.65;;;;;;;21.65;51.42;99568.16;10286681;28;20164;-73
2022/09/08 16:51:50;;;;;;;3.20;0.68;;;;;;;21.38;52.17;99557.34;10293282;28;20062;-73
2022/09/08 16:57:33;;;;;;;2.33;0.60;;;;;;;21.37;52.88;99567.31;10281033;28;20069;-72
2022/09/08 17:02:44;;;;;;;1.95;0.60;;;;;;;21.25;52.59;99566.31;10326203;28;20038;-74
2022/09/08 17:08:12;;;;;;;3.20;0.80;;;;;;;21.23;53.21;99570.25;10320478;28;20100;-75
2022/09/08 17:13:24;;;;;;;2.80;0.80;;;;;;;21.10;54.45;99573.81;10279492;28;20062;-73
2022/09/08 17:18:48;;;;;;;1.60;0.60;;;;;;;21.02;55.19;99556.75;10291582;28;20058;-74
2022/09/08 17:24:22;;;;;;;3.30;0.95;;;;;;;20.85;56.36;99566.31;10279170;28;20129;-72
2022/09/08 17:29:30;;;;;;;2.53;0.90;;;;;;;20.76;56.93;99573.81;10281070;28;20120;-73
2022/09/08 17:34:58;;;;;;;3.22;0.98;;;;;;;20.72;56.88;99553.63;10292555;28;20062;-72
2022/09/08 17:40:23;;;;;;;2.03;0.80;;;;;;;20.63;56.95;99544.03;10278423;28;20046;-75
2022/09/08 17:45:34;;;;;;;2.80;1.10;;;;;;;20.58;57.12;99549.19;10279402;28;20046;-74
2022/09/08 17:50:40;;;;;;;6.68;1.98;;;;;;;20.50;57.17;99561.03;10273143;28;20102;-77
2022/09/08 17:55:44;;;;;;;5.10;1.60;;;;;;;20.46;57.98;99566.03;10281444;28;20054;-75
2022/09/08 18:00:55;;;;;;;5.47;1.40;;;;;;;20.38;57.77;99573.50;10279977;28;20050;-76
2022/09/08 18:06:26;;;;;;;3.90;0.90;;;;;;;20.24;58.21;99580.75;10283004;28;20046;-76
2022/09/08 18:11:31;;;;;;;3.15;0.98;;;;;;;20.31;58.35;99584.28;10260438;28;20054;-72
2022/09/08 18:16:35;;;;;;;1.83;1.15;;;;;;;20.27;58.25;99585.75;10269339;28;20234;-72
2022/09/08 18:21:52;;;;;;;5.03;1.85;;;;;;;20.23;58.74;99593.41;10287721;28;20224;-71
2022/09/08 18:27:31;;;;;;;2.85;1.42;;;;;;;20.17;59.39;99605.03;10285541;28;20050;-70
2022/09/08 18:33:03;;;;;;;3.25;1.40;;;;;;;20.13;59.52;99603.75;10269505;28;20046;-72
2022/09/08 18:38:17;;;;;;;2.55;1.30;;;;;;;20.10;59.67;99613.13;10284087;28;20050;-71
2022/09/08 18:43:30;;;;;;;;;;;;;;;20.06;60.21;99624.53;10268106;28;20134;-70
2022/09/08 18:48:44;;;;;;;5.18;1.05;;;;;;;20.04;60.34;99622.03;10268353;28;19939;-71
2022/09/08 18:54:24;;;;;;;4.75;1.23;;;;;;;20.00;60.68;99626.16;10268712;28;20069;-69
2022/09/08 18:59:44;;;;;;;3.75;1.17;;;;;;;20.01;60.84;99633.25;10269512;28;20062;-69
2022/09/08 19:05:13;;;;;;;6.18;2.58;;;;;;;19.93;61.65;99636.09;10267751;28;20053;-73
2022/09/08 19:10:39;;;;;;;2.67;1.38;;;;;;;19.96;61.52;99635.69;10269099;28;20054;-74
2022/09/08 19:15:58;;;;;;;3.42;1.75;;;;;;;20.00;61.94;99645.06;10267350;28;20057;-74
2022/09/08 19:21:02;;;;;;;4.15;1.63;;;;;;;19.96;61.89;99649.19;10274932;28;20563;-73
2022/09/08 19:26:35;;;;;;;2.35;1.10;;;;;;;19.82;62.50;99644.78;10276072;28;20525;-70
2022/09/08 19:31:41;;;;;;;3.67;1.50;;;;;;;19.80;62.56;99644.13;10276017;28;20057;-74
2022/09/08 19:36:54;;;;;;;4.25;2.03;;;;;;;19.86;63.40;99651.41;10274982;28;20143;-71
2022/09/08 19:42:17;;;;;;;3.25;1.40;;;;;;;19.81;63.49;99643.09;10277720;28;20062;-70
2022/09/08 19:47:44;;;;;;;3.97;1.60;;;;;;;19.77;63.65;99638.09;10289700;28;20038;-74
2022/09/08 19:52:45;;;;;;;3.08;1.83;;;;;;;19.72;63.62;99651.31;10274302;28;20054;-74
2022/09/08 19:57:52;;;;;;;5.35;1.80;;;;;;;19.73;64.28;99644.06;10285686;28;20061;-72
2022/09/08 20:03:21;;;;;;;3.90;1.55;;;;;;;19.71;63.95;99649.66;10274667;28;20057;-72
2022/09/08 20:08:32;;;;;;;4.85;1.38;;;;;;;19.65;64.47;99655.84;10278724;28;20054;-72
2022/09/08 20:13:37;;;;;;;5.43;2.08;;;;;;;19.52;64.64;99661.16;10286978;28;20042;-74
2022/09/08 20:18:38;;;;;;;3.15;1.40;;;;;;;19.35;65.66;99645.25;10276287;28;20054;-71
2022/09/08 20:23:41;;;;;;;4.78;2.03;;;;;;;19.25;65.82;99636.66;10291486;28;20599;-73
2022/09/08 20:29:08;;;;;;;2.23;1.40;;;;;;;19.24;65.10;99632.28;10283448;28;20057;-72
2022/09/08 20:34:29;;;;;;;2.45;1.33;;;;;;;19.15;65.41;99641.53;10284625;28;20127;-73
2022/09/08 20:39:56;;;;;;;2.80;1.30;;;;;;;19.28;65.23;99635.44;10309445;28;20070;-71
2022/09/08 20:45:06;;;;;;;3.60;1.65;;;;;;;19.24;64.47;99643.06;10345867;28;20046;-71
2022/09/08 20:50:31;;;;;;;2.35;1.38;;;;;;;19.14;64.97;99637.16;10308436;28;20081;-71
2022/09/08 20:55:36;;;;;;;3.03;1.00;;;;;;;19.04;65.15;99646.44;10305836;28;20053;-71
2022/09/08 21:00:38;;;;;;;3.40;0.95;;;;;;;19.07;64.30;99648.75;10319616;28;20055;-72
2022/09/08 21:05:40;;;;;;;3.47;1.02;;;;;;;18.96;65.06;99645.72;10303294;28;20076;-73
2022/09/08 21:10:55;;;;;;;2.63;0.93;;;;;;;18.99;65.22;99645.34;10311042;28;20050;-73
2022/09/08 21:16:11;;;;;;;3.85;1.52;;;;;;;18.98;65.22;99644.50;10285743;28;20142;-72
2022/09/08 21:21:39;;;;;;;1.73;1.10;;;;;;;18.85;65.11;99650.59;10285381;28;20084;-72
2022/09/08 21:26:54;;;;;;;2.75;1.55;;;;;;;18.82;65.00;99650.13;10289751;28;20046;-70
2022/09/08 21:32:01;;;;;;;2.60;1.00;;;;;;;18.76;65.32;99653.59;10286782;28;20050;-70
2022/09/08 21:37:39;;;;;;;2.50;1.23;;;;;;;18.86;65.83;99665.75;10286065;28;20665;-71
2022/09/08 21:42:43;;;;;;;3.45;1.38;;;;;;;18.89;64.65;99656.47;10287411;28;22137;-70
2022/09/08 21:47:47;;;;;;;2.83;1.00;;;;;;;18.79;65.24;99655.91;10284944;28;20449;-70
2022/09/08 21:52:54;;;;;;;3.33;1.20;;;;;;;18.66;64.73;99662.84;10283769;28;20076;-71
2022/09/08 21:58:09;;;;;;;2.28;1.13;;;;;;;18.70;65.21;99647.91;10284740;28;20613;-70
2022/09/08 22:03:23;;;;;;;3.05;0.70;;;;;;;18.80;64.17;99654.88;10285323;28;20126;-68
2022/09/08 22:08:26;;;;;;;3.00;0.80;;;;;;;18.72;63.39;99664.75;10285579;28;20589;-72
2022/09/08 22:13:32;;;;;;;2.47;1.40;;;;;;;18.52;63.94;99661.00;10284345;28;20312;-71
2022/09/08 22:18:42;;;;;;;2.53;0.70;;;;;;;18.63;63.22;99655.13;10284471;28;20054;-70
2022/09/08 22:23:55;;;;;;;3.28;0.80;;;;;;;18.60;63.13;99647.44;10285880;28;20054;-70
2022/09/08 22:28:56;;;;;;;3.05;0.80;;;;;;;18.78;63.62;99638.91;10284415;28;20062;-71
2022/09/08 22:34:22;;;;;;;2.05;0.80;;;;;;;18.79;62.73;99647.81;10285599;28;20053;-71
2022/09/08 22:39:37;;;;;;;2.65;0.65;;;;;;;18.71;63.11;99652.31;10282944;28;20053;-70
2022/09/08 22:44:46;;;;;;;2.08;0.77;;;;;;;18.61;62.89;99640.16;10283645;28;20125;-71
2022/09/08 22:50:02;;;;;;;1.33;0.50;;;;;;;18.59;63.58;99651.13;10283068;28;20054;-70
2022/09/08 22:55:21;;;;;;;2.90;1.33;;;;;;;18.59;63.57;99645.75;10282272;28;20718;-72
2022/09/08 23:00:25;;;;;;;1.60;0.80;;;;;;;18.61;64.36;99643.69;10282676;28;20749;-70
2022/09/08 23:05:30;;;;;;;;;;;;;;;18.51;64.48;99646.69;10284152;28;20061;-71
2022/09/08 23:10:31;;;;;;;2.70;0.45;;;;;;;18.52;64.23;99644.84;10283471;28;19933;-71
2022/09/08 23:15:54;;;;;;;1.83;0.50;;;;;;;18.72;63.97;99647.75;10284319;28;20073;-70
2022/09/08 23:20:59;;;;;;;2.33;0.73;;;;;;;18.72;63.91;99651.28;10283299;28;20502;-70
2022/09/08 23:26:15;;;;;;;2.72;0.70;;;;;;;18.79;65.29;99651.34;10283860;28;20050;-72
2022/09/08 23:31:37;;;;;;;3.55;1.20;;;;;;;18.86;65.56;99657.66;10282610;28;20997;-70
2022/09/08 23:36:51;;;;;;;1.90;0.70;;;;;;;19.00;65.42;99653.22;10283778;28;20082;-71
2022/09/08 23:41:53;;;;;;;2.78;0.85;;;;;;;19.07;64.97;99664.09;10280306;28;20709;-71
2022/09/08 23:46:58;;;;;;;1.15;0.70;;;;;;;18.88;64.70;99657.47;10283701;28;20156;-71
2022/09/08 23:52:04;;;;;;;2.45;0.60;;;;;;;18.65;65.54;99644.97;10282570;28;20567;-70
2022/09/08 23:57:07;;;;;;;2.42;0.80;;;;;;;18.66;65.07;99641.28;10280191;28;20047;-70
